Terminal Aerodrome Forecast
Issued by NWS Sioux Falls, SD

Home | Current Version | Previous Version | Text Only | Print | Product List | Glossary Off
Versions: 1 2 3 4 5 6 7 8 9 10 11 12 13 14 15 16 17 18 19 20 21 22 23 24 25 26 27 28 29 30 31 32

000
FTUS43 KFSD 051132
TAFSUX
TAF
KSUX 051132Z 0512/0612 13006KT P6SM OVC130
     FM051400 16009KT P6SM OVC080
     FM051600 18011KT P6SM SCT025 OVC040
      TEMPO 0517/0520 3SM -SN SCT015 OVC025
     FM052000 22010KT P6SM OVC010
     FM052300 27007KT P6SM OVC015
     FM060300 32010KT P6SM BKN020
     FM060600 31007KT P6SM SCT200=

USA.gov is the U.S. government's official web portal to all federal, state and local government web resources and services.